sensor_id;sensor_type;location;lat;lon;timestamp;P1;durP1;ratioP1;P2;durP2;ratioP2
1509;SDS011;746;48.688;9.428;2024-01-30T00:00:41;18.33;;;15.60;;
1509;SDS011;746;48.688;9.428;2024-01-30T00:03:03;19.00;;;15.20;;
1509;SDS011;746;48.688;9.428;2024-01-30T00:05:24;17.87;;;15.13;;
1509;SDS011;746;48.688;9.428;2024-01-30T00:07:46;20.87;;;16.10;;
1509;SDS011;746;48.688;9.428;2024-01-30T00:10:08;19.87;;;15.17;;
1509;SDS011;746;48.688;9.428;2024-01-30T00:12:29;17.43;;;14.43;;
1509;SDS011;746;48.688;9.428;2024-01-30T00:14:53;18.23;;;14.73;;
1509;SDS011;746;48.688;9.428;2024-01-30T00:17:15;17.23;;;14.83;;
1509;SDS011;746;48.688;9.428;2024-01-30T00:19:36;18.53;;;14.47;;
1509;SDS011;746;48.688;9.428;2024-01-30T00:21:58;15.77;;;13.73;;
1509;SDS011;746;48.688;9.428;2024-01-30T00:24:18;17.50;;;14.33;;
1509;SDS011;746;48.688;9.428;2024-01-30T00:26:40;16.37;;;14.17;;
1509;SDS011;746;48.688;9.428;2024-01-30T00:29:01;17.90;;;13.80;;
1509;SDS011;746;48.688;9.428;2024-01-30T00:31:25;17.23;;;13.70;;
1509;SDS011;746;48.688;9.428;2024-01-30T00:33:46;16.97;;;14.40;;
1509;SDS011;746;48.688;9.428;2024-01-30T00:36:08;16.63;;;14.97;;
1509;SDS011;746;48.688;9.428;2024-01-30T00:38:30;17.87;;;14.43;;
1509;SDS011;746;48.688;9.428;2024-01-30T00:40:51;17.10;;;14.63;;
1509;SDS011;746;48.688;9.428;2024-01-30T00:43:13;17.43;;;14.73;;
1509;SDS011;746;48.688;9.428;2024-01-30T00:45:34;16.43;;;14.60;;
1509;SDS011;746;48.688;9.428;2024-01-30T00:47:57;16.07;;;14.13;;
1509;SDS011;746;48.688;9.428;2024-01-30T00:50:19;18.43;;;15.73;;
1509;SDS011;746;48.688;9.428;2024-01-30T00:52:41;19.33;;;15.23;;
1509;SDS011;746;48.688;9.428;2024-01-30T00:55:05;17.97;;;15.03;;
1509;SDS011;746;48.688;9.428;2024-01-30T00:57:27;18.50;;;15.60;;
1509;SDS011;746;48.688;9.428;2024-01-30T00:59:48;17.53;;;14.27;;
1509;SDS011;746;48.688;9.428;2024-01-30T01:02:10;20.57;;;16.17;;
1509;SDS011;746;48.688;9.428;2024-01-30T01:04:32;18.20;;;14.53;;
1509;SDS011;746;48.688;9.428;2024-01-30T01:06:53;18.93;;;14.90;;
1509;SDS011;746;48.688;9.428;2024-01-30T01:09:15;18.27;;;15.50;;
1509;SDS011;746;48.688;9.428;2024-01-30T01:11:37;18.43;;;14.87;;
1509;SDS011;746;48.688;9.428;2024-01-30T01:13:59;16.97;;;15.20;;
1509;SDS011;746;48.688;9.428;2024-01-30T01:16:20;18.37;;;14.07;;
1509;SDS011;746;48.688;9.428;2024-01-30T01:18:42;19.17;;;14.73;;
1509;SDS011;746;48.688;9.428;2024-01-30T01:21:05;16.40;;;13.93;;
1509;SDS011;746;48.688;9.428;2024-01-30T01:23:27;19.67;;;15.90;;
1509;SDS011;746;48.688;9.428;2024-01-30T01:25:48;18.50;;;15.50;;
1509;SDS011;746;48.688;9.428;2024-01-30T01:28:10;19.07;;;15.07;;
1509;SDS011;746;48.688;9.428;2024-01-30T01:30:31;17.87;;;15.20;;
1509;SDS011;746;48.688;9.428;2024-01-30T01:32:52;17.73;;;15.13;;
1509;SDS011;746;48.688;9.428;2024-01-30T01:35:17;16.30;;;14.10;;
1509;SDS011;746;48.688;9.428;2024-01-30T01:37:39;16.83;;;14.97;;
1509;SDS011;746;48.688;9.428;2024-01-30T01:40:01;20.87;;;14.33;;
1509;SDS011;746;48.688;9.428;2024-01-30T01:42:23;16.33;;;14.43;;
1509;SDS011;746;48.688;9.428;2024-01-30T01:44:44;16.67;;;14.00;;
1509;SDS011;746;48.688;9.428;2024-01-30T01:47:05;15.30;;;13.63;;
1509;SDS011;746;48.688;9.428;2024-01-30T01:49:27;16.93;;;15.13;;
1509;SDS011;746;48.688;9.428;2024-01-30T01:51:50;15.70;;;13.57;;
1509;SDS011;746;48.688;9.428;2024-01-30T01:54:14;15.60;;;13.97;;
1509;SDS011;746;48.688;9.428;2024-01-30T01:56:36;15.17;;;13.53;;
1509;SDS011;746;48.688;9.428;2024-01-30T01:58:59;18.53;;;14.50;;
1509;SDS011;746;48.688;9.428;2024-01-30T02:01:21;19.23;;;14.67;;
1509;SDS011;746;48.688;9.428;2024-01-30T02:03:45;15.70;;;13.93;;
1509;SDS011;746;48.688;9.428;2024-01-30T02:06:06;15.53;;;13.93;;
1509;SDS011;746;48.688;9.428;2024-01-30T02:08:28;15.87;;;14.07;;
1509;SDS011;746;48.688;9.428;2024-01-30T02:10:51;17.53;;;14.33;;
1509;SDS011;746;48.688;9.428;2024-01-30T02:13:12;16.60;;;13.90;;
1509;SDS011;746;48.688;9.428;2024-01-30T02:15:34;18.17;;;14.33;;
1509;SDS011;746;48.688;9.428;2024-01-30T02:17:55;16.33;;;13.67;;
1509;SDS011;746;48.688;9.428;2024-01-30T02:20:17;15.53;;;13.77;;
1509;SDS011;746;48.688;9.428;2024-01-30T02:22:40;15.67;;;13.97;;
1509;SDS011;746;48.688;9.428;2024-01-30T02:25:03;15.50;;;13.90;;
1509;SDS011;746;48.688;9.428;2024-01-30T02:27:24;16.27;;;14.07;;
1509;SDS011;746;48.688;9.428;2024-01-30T02:29:46;15.70;;;13.50;;
1509;SDS011;746;48.688;9.428;2024-01-30T02:32:07;16.63;;;14.87;;
1509;SDS011;746;48.688;9.428;2024-01-30T02:34:29;16.77;;;14.63;;
1509;SDS011;746;48.688;9.428;2024-01-30T02:36:51;15.50;;;12.87;;
1509;SDS011;746;48.688;9.428;2024-01-30T02:39:14;15.93;;;14.23;;
1509;SDS011;746;48.688;9.428;2024-01-30T02:41:35;16.53;;;14.53;;
1509;SDS011;746;48.688;9.428;2024-01-30T02:43:57;15.90;;;13.60;;
1509;SDS011;746;48.688;9.428;2024-01-30T02:46:18;16.97;;;13.63;;
1509;SDS011;746;48.688;9.428;2024-01-30T02:48:40;17.37;;;13.80;;
1509;SDS011;746;48.688;9.428;2024-01-30T02:51:01;15.33;;;13.73;;
1509;SDS011;746;48.688;9.428;2024-01-30T02:53:22;17.77;;;13.90;;
1509;SDS011;746;48.688;9.428;2024-01-30T02:55:45;15.63;;;13.33;;
1509;SDS011;746;48.688;9.428;2024-01-30T02:58:07;15.87;;;13.93;;
1509;SDS011;746;48.688;9.428;2024-01-30T03:00:28;20.03;;;15.50;;
1509;SDS011;746;48.688;9.428;2024-01-30T03:02:49;17.33;;;14.87;;
1509;SDS011;746;48.688;9.428;2024-01-30T03:05:11;17.30;;;14.60;;
1509;SDS011;746;48.688;9.428;2024-01-30T03:07:33;18.50;;;15.07;;
1509;SDS011;746;48.688;9.428;2024-01-30T03:09:54;17.93;;;13.90;;
1509;SDS011;746;48.688;9.428;2024-01-30T03:12:18;18.10;;;15.53;;
1509;SDS011;746;48.688;9.428;2024-01-30T03:14:39;16.37;;;14.10;;
1509;SDS011;746;48.688;9.428;2024-01-30T03:17:00;16.70;;;14.83;;
1509;SDS011;746;48.688;9.428;2024-01-30T03:19:22;17.10;;;14.70;;
1509;SDS011;746;48.688;9.428;2024-01-30T03:21:44;17.67;;;14.13;;
1509;SDS011;746;48.688;9.428;2024-01-30T03:24:05;17.77;;;14.20;;
1509;SDS011;746;48.688;9.428;2024-01-30T03:26:27;16.00;;;13.57;;
1509;SDS011;746;48.688;9.428;2024-01-30T03:28:49;16.07;;;13.53;;
1509;SDS011;746;48.688;9.428;2024-01-30T03:31:13;15.27;;;13.17;;
1509;SDS011;746;48.688;9.428;2024-01-30T03:33:36;16.37;;;13.77;;
1509;SDS011;746;48.688;9.428;2024-01-30T03:36:02;16.50;;;13.70;;
1509;SDS011;746;48.688;9.428;2024-01-30T03:38:24;16.33;;;14.17;;
1509;SDS011;746;48.688;9.428;2024-01-30T03:40:45;16.97;;;14.07;;
1509;SDS011;746;48.688;9.428;2024-01-30T03:43:06;15.07;;;13.47;;
1509;SDS011;746;48.688;9.428;2024-01-30T03:45:29;17.87;;;14.17;;
1509;SDS011;746;48.688;9.428;2024-01-30T03:47:50;17.30;;;14.83;;
1509;SDS011;746;48.688;9.428;2024-01-30T03:50:12;17.53;;;14.17;;
1509;SDS011;746;48.688;9.428;2024-01-30T03:52:33;14.77;;;13.20;;
1509;SDS011;746;48.688;9.428;2024-01-30T03:54:55;15.73;;;13.87;;
1509;SDS011;746;48.688;9.428;2024-01-30T03:57:16;18.13;;;14.10;;
1509;SDS011;746;48.688;9.428;2024-01-30T03:59:38;16.07;;;14.10;;
1509;SDS011;746;48.688;9.428;2024-01-30T04:02:04;16.90;;;14.33;;
1509;SDS011;746;48.688;9.428;2024-01-30T04:04:26;17.17;;;14.40;;
1509;SDS011;746;48.688;9.428;2024-01-30T04:06:48;18.83;;;14.63;;
1509;SDS011;746;48.688;9.428;2024-01-30T04:09:09;15.93;;;14.23;;
1509;SDS011;746;48.688;9.428;2024-01-30T04:11:31;15.80;;;14.10;;
1509;SDS011;746;48.688;9.428;2024-01-30T04:13:53;17.47;;;13.83;;
1509;SDS011;746;48.688;9.428;2024-01-30T04:16:19;14.97;;;13.37;;
1509;SDS011;746;48.688;9.428;2024-01-30T04:18:43;15.43;;;13.17;;
1509;SDS011;746;48.688;9.428;2024-01-30T04:21:04;16.57;;;13.93;;
1509;SDS011;746;48.688;9.428;2024-01-30T04:23:26;15.93;;;13.80;;
1509;SDS011;746;48.688;9.428;2024-01-30T04:25:47;15.90;;;13.90;;
1509;SDS011;746;48.688;9.428;2024-01-30T04:28:09;15.00;;;13.47;;
1509;SDS011;746;48.688;9.428;2024-01-30T04:30:32;18.87;;;14.03;;
1509;SDS011;746;48.688;9.428;2024-01-30T04:32:53;14.63;;;12.97;;
1509;SDS011;746;48.688;9.428;2024-01-30T04:35:16;16.17;;;13.87;;
1509;SDS011;746;48.688;9.428;2024-01-30T04:37:41;14.93;;;13.17;;
1509;SDS011;746;48.688;9.428;2024-01-30T04:40:02;15.47;;;13.77;;
1509;SDS011;746;48.688;9.428;2024-01-30T04:42:25;15.87;;;13.77;;
1509;SDS011;746;48.688;9.428;2024-01-30T04:44:46;16.67;;;14.00;;
1509;SDS011;746;48.688;9.428;2024-01-30T04:47:08;17.73;;;13.97;;
1509;SDS011;746;48.688;9.428;2024-01-30T04:49:31;16.17;;;13.80;;
1509;SDS011;746;48.688;9.428;2024-01-30T04:51:55;17.00;;;14.67;;
1509;SDS011;746;48.688;9.428;2024-01-30T04:54:16;18.33;;;14.57;;
1509;SDS011;746;48.688;9.428;2024-01-30T04:56:38;16.70;;;13.93;;
1509;SDS011;746;48.688;9.428;2024-01-30T04:59:00;14.97;;;13.37;;
1509;SDS011;746;48.688;9.428;2024-01-30T05:01:21;20.57;;;14.73;;
1509;SDS011;746;48.688;9.428;2024-01-30T05:03:43;16.57;;;14.50;;
1509;SDS011;746;48.688;9.428;2024-01-30T05:06:05;15.13;;;13.47;;
1509;SDS011;746;48.688;9.428;2024-01-30T05:08:29;15.77;;;13.90;;
1509;SDS011;746;48.688;9.428;2024-01-30T05:10:50;16.47;;;14.67;;
1509;SDS011;746;48.688;9.428;2024-01-30T05:13:12;17.97;;;14.57;;
1509;SDS011;746;48.688;9.428;2024-01-30T05:15:34;18.37;;;14.63;;
1509;SDS011;746;48.688;9.428;2024-01-30T05:17:56;17.13;;;14.40;;
1509;SDS011;746;48.688;9.428;2024-01-30T05:20:17;23.43;;;19.43;;
1509;SDS011;746;48.688;9.428;2024-01-30T05:22:40;20.90;;;17.77;;
1509;SDS011;746;48.688;9.428;2024-01-30T05:25:07;18.33;;;16.30;;
1509;SDS011;746;48.688;9.428;2024-01-30T05:27:29;17.30;;;14.57;;
1509;SDS011;746;48.688;9.428;2024-01-30T05:29:50;18.03;;;14.90;;
1509;SDS011;746;48.688;9.428;2024-01-30T05:32:12;16.13;;;14.17;;
1509;SDS011;746;48.688;9.428;2024-01-30T05:34:33;17.10;;;14.00;;
1509;SDS011;746;48.688;9.428;2024-01-30T05:36:54;15.37;;;13.77;;
1509;SDS011;746;48.688;9.428;2024-01-30T05:39:16;17.10;;;14.07;;
1509;SDS011;746;48.688;9.428;2024-01-30T05:41:39;17.83;;;15.23;;
1509;SDS011;746;48.688;9.428;2024-01-30T05:44:00;20.10;;;14.87;;
1509;SDS011;746;48.688;9.428;2024-01-30T05:46:23;16.43;;;14.50;;
1509;SDS011;746;48.688;9.428;2024-01-30T05:48:44;16.57;;;14.60;;
1509;SDS011;746;48.688;9.428;2024-01-30T05:51:06;16.40;;;14.23;;
1509;SDS011;746;48.688;9.428;2024-01-30T05:53:28;17.93;;;15.00;;
1509;SDS011;746;48.688;9.428;2024-01-30T05:55:49;17.33;;;15.50;;
1509;SDS011;746;48.688;9.428;2024-01-30T05:58:13;16.83;;;14.67;;
1509;SDS011;746;48.688;9.428;2024-01-30T06:00:34;15.93;;;14.23;;
1509;SDS011;746;48.688;9.428;2024-01-30T06:02:55;17.60;;;14.20;;
1509;SDS011;746;48.688;9.428;2024-01-30T06:05:17;17.27;;;14.93;;
1509;SDS011;746;48.688;9.428;2024-01-30T06:07:38;17.37;;;14.37;;
1509;SDS011;746;48.688;9.428;2024-01-30T06:10:00;15.50;;;13.90;;
1509;SDS011;746;48.688;9.428;2024-01-30T06:12:21;16.63;;;14.67;;
1509;SDS011;746;48.688;9.428;2024-01-30T06:14:44;18.03;;;14.87;;
1509;SDS011;746;48.688;9.428;2024-01-30T06:17:07;15.97;;;14.00;;
1509;SDS011;746;48.688;9.428;2024-01-30T06:19:28;18.63;;;15.13;;
1509;SDS011;746;48.688;9.428;2024-01-30T06:21:50;19.67;;;14.90;;
1509;SDS011;746;48.688;9.428;2024-01-30T06:24:11;16.73;;;14.03;;
1509;SDS011;746;48.688;9.428;2024-01-30T06:26:33;17.43;;;13.87;;
1509;SDS011;746;48.688;9.428;2024-01-30T06:28:55;16.50;;;14.77;;
1509;SDS011;746;48.688;9.428;2024-01-30T06:31:18;18.97;;;15.57;;
1509;SDS011;746;48.688;9.428;2024-01-30T06:33:39;16.43;;;14.30;;
1509;SDS011;746;48.688;9.428;2024-01-30T06:36:02;18.37;;;14.70;;
1509;SDS011;746;48.688;9.428;2024-01-30T06:38:24;16.63;;;14.70;;
1509;SDS011;746;48.688;9.428;2024-01-30T06:40:45;19.27;;;16.67;;
1509;SDS011;746;48.688;9.428;2024-01-30T06:43:06;19.77;;;17.13;;
1509;SDS011;746;48.688;9.428;2024-01-30T06:45:28;18.03;;;15.20;;
1509;SDS011;746;48.688;9.428;2024-01-30T06:47:51;18.77;;;15.80;;
1509;SDS011;746;48.688;9.428;2024-01-30T06:50:13;18.17;;;15.07;;
1509;SDS011;746;48.688;9.428;2024-01-30T06:52:36;17.07;;;15.20;;
1509;SDS011;746;48.688;9.428;2024-01-30T06:54:58;16.63;;;14.87;;
1509;SDS011;746;48.688;9.428;2024-01-30T06:57:19;17.30;;;15.33;;
1509;SDS011;746;48.688;9.428;2024-01-30T06:59:41;18.30;;;13.77;;
1509;SDS011;746;48.688;9.428;2024-01-30T07:02:04;16.37;;;14.50;;
1509;SDS011;746;48.688;9.428;2024-01-30T07:04:27;18.30;;;14.80;;
1509;SDS011;746;48.688;9.428;2024-01-30T07:06:48;21.10;;;16.50;;
1509;SDS011;746;48.688;9.428;2024-01-30T07:09:09;21.60;;;16.97;;
1509;SDS011;746;48.688;9.428;2024-01-30T07:11:31;20.03;;;16.27;;
1509;SDS011;746;48.688;9.428;2024-01-30T07:13:52;20.20;;;16.07;;
1509;SDS011;746;48.688;9.428;2024-01-30T07:16:13;20.47;;;16.50;;
1509;SDS011;746;48.688;9.428;2024-01-30T07:18:35;20.77;;;16.30;;
1509;SDS011;746;48.688;9.428;2024-01-30T07:20:58;18.83;;;15.70;;
1509;SDS011;746;48.688;9.428;2024-01-30T07:23:19;17.43;;;15.53;;
1509;SDS011;746;48.688;9.428;2024-01-30T07:25:40;22.23;;;18.60;;
1509;SDS011;746;48.688;9.428;2024-01-30T07:28:02;21.30;;;17.80;;
1509;SDS011;746;48.688;9.428;2024-01-30T07:30:24;21.27;;;16.73;;
1509;SDS011;746;48.688;9.428;2024-01-30T07:32:45;21.27;;;17.93;;
1509;SDS011;746;48.688;9.428;2024-01-30T07:35:07;21.47;;;17.90;;
1509;SDS011;746;48.688;9.428;2024-01-30T07:37:30;21.07;;;18.37;;
1509;SDS011;746;48.688;9.428;2024-01-30T07:39:52;22.00;;;18.50;;
1509;SDS011;746;48.688;9.428;2024-01-30T07:42:14;21.93;;;17.43;;
1509;SDS011;746;48.688;9.428;2024-01-30T07:44:36;27.20;;;19.30;;
1509;SDS011;746;48.688;9.428;2024-01-30T07:46:57;25.47;;;19.10;;
1509;SDS011;746;48.688;9.428;2024-01-30T07:49:19;28.03;;;20.47;;
1509;SDS011;746;48.688;9.428;2024-01-30T07:51:41;28.70;;;21.90;;
1509;SDS011;746;48.688;9.428;2024-01-30T07:54:04;25.93;;;20.33;;
1509;SDS011;746;48.688;9.428;2024-01-30T07:56:26;25.63;;;19.00;;
1509;SDS011;746;48.688;9.428;2024-01-30T07:58:47;21.93;;;17.27;;
1509;SDS011;746;48.688;9.428;2024-01-30T08:01:09;18.73;;;16.10;;
1509;SDS011;746;48.688;9.428;2024-01-30T08:03:31;18.70;;;16.33;;
1509;SDS011;746;48.688;9.428;2024-01-30T08:05:53;19.70;;;16.13;;
1509;SDS011;746;48.688;9.428;2024-01-30T08:08:15;27.67;;;21.53;;
1509;SDS011;746;48.688;9.428;2024-01-30T08:10:37;26.20;;;20.33;;
1509;SDS011;746;48.688;9.428;2024-01-30T08:12:59;24.00;;;19.90;;
1509;SDS011;746;48.688;9.428;2024-01-30T08:15:20;21.63;;;18.13;;
1509;SDS011;746;48.688;9.428;2024-01-30T08:17:42;19.83;;;17.70;;
1509;SDS011;746;48.688;9.428;2024-01-30T08:20:05;20.83;;;15.37;;
1509;SDS011;746;48.688;9.428;2024-01-30T08:22:28;21.23;;;17.07;;
1509;SDS011;746;48.688;9.428;2024-01-30T08:24:50;20.47;;;17.67;;
1509;SDS011;746;48.688;9.428;2024-01-30T08:27:12;20.67;;;17.40;;
1509;SDS011;746;48.688;9.428;2024-01-30T08:29:34;20.03;;;17.33;;
1509;SDS011;746;48.688;9.428;2024-01-30T08:31:55;21.97;;;17.97;;
1509;SDS011;746;48.688;9.428;2024-01-30T08:34:19;20.10;;;17.93;;
1509;SDS011;746;48.688;9.428;2024-01-30T08:36:40;20.63;;;18.43;;
1509;SDS011;746;48.688;9.428;2024-01-30T08:39:02;24.60;;;20.23;;
1509;SDS011;746;48.688;9.428;2024-01-30T08:41:25;20.70;;;18.50;;
1509;SDS011;746;48.688;9.428;2024-01-30T08:43:47;19.53;;;17.20;;
1509;SDS011;746;48.688;9.428;2024-01-30T08:46:08;18.87;;;16.87;;
1509;SDS011;746;48.688;9.428;2024-01-30T08:48:30;18.50;;;16.33;;
1509;SDS011;746;48.688;9.428;2024-01-30T08:50:51;16.67;;;15.00;;
1509;SDS011;746;48.688;9.428;2024-01-30T08:53:13;18.27;;;16.27;;
1509;SDS011;746;48.688;9.428;2024-01-30T08:55:34;17.40;;;15.67;;
1509;SDS011;746;48.688;9.428;2024-01-30T08:57:56;73.70;;;46.17;;
1509;SDS011;746;48.688;9.428;2024-01-30T09:00:19;31.77;;;25.37;;
1509;SDS011;746;48.688;9.428;2024-01-30T09:02:41;16.83;;;15.13;;
1509;SDS011;746;48.688;9.428;2024-01-30T09:05:03;15.37;;;13.43;;
1509;SDS011;746;48.688;9.428;2024-01-30T09:07:25;15.97;;;14.37;;
1509;SDS011;746;48.688;9.428;2024-01-30T09:09:47;19.00;;;14.53;;
1509;SDS011;746;48.688;9.428;2024-01-30T09:12:09;17.53;;;13.90;;
1509;SDS011;746;48.688;9.428;2024-01-30T09:14:32;16.60;;;14.80;;
1509;SDS011;746;48.688;9.428;2024-01-30T09:16:55;16.00;;;14.30;;
1509;SDS011;746;48.688;9.428;2024-01-30T09:19:16;16.93;;;15.23;;
1509;SDS011;746;48.688;9.428;2024-01-30T09:21:38;17.30;;;15.50;;
1509;SDS011;746;48.688;9.428;2024-01-30T09:24:01;15.30;;;13.80;;
1509;SDS011;746;48.688;9.428;2024-01-30T09:26:24;18.10;;;14.97;;
1509;SDS011;746;48.688;9.428;2024-01-30T09:28:46;15.17;;;13.67;;
1509;SDS011;746;48.688;9.428;2024-01-30T09:31:09;15.07;;;13.47;;
1509;SDS011;746;48.688;9.428;2024-01-30T09:33:32;16.93;;;14.83;;
1509;SDS011;746;48.688;9.428;2024-01-30T09:35:53;16.50;;;14.80;;
1509;SDS011;746;48.688;9.428;2024-01-30T09:38:15;17.97;;;15.27;;
1509;SDS011;746;48.688;9.428;2024-01-30T09:40:36;17.33;;;15.00;;
1509;SDS011;746;48.688;9.428;2024-01-30T09:42:58;17.77;;;14.63;;
1509;SDS011;746;48.688;9.428;2024-01-30T09:45:22;15.30;;;13.70;;
1509;SDS011;746;48.688;9.428;2024-01-30T09:47:45;18.80;;;15.77;;
1509;SDS011;746;48.688;9.428;2024-01-30T09:50:08;17.67;;;15.87;;
1509;SDS011;746;48.688;9.428;2024-01-30T09:52:30;18.53;;;16.20;;
1509;SDS011;746;48.688;9.428;2024-01-30T09:54:52;16.50;;;14.70;;
1509;SDS011;746;48.688;9.428;2024-01-30T09:57:14;17.53;;;14.20;;
1509;SDS011;746;48.688;9.428;2024-01-30T09:59:36;16.70;;;14.67;;
1509;SDS011;746;48.688;9.428;2024-01-30T10:01:57;16.40;;;14.07;;
1509;SDS011;746;48.688;9.428;2024-01-30T10:04:19;15.63;;;13.43;;
1509;SDS011;746;48.688;9.428;2024-01-30T10:06:43;14.03;;;12.53;;
1509;SDS011;746;48.688;9.428;2024-01-30T10:09:05;17.67;;;13.87;;
1509;SDS011;746;48.688;9.428;2024-01-30T10:11:26;14.20;;;12.03;;
1509;SDS011;746;48.688;9.428;2024-01-30T10:13:48;13.90;;;12.50;;
1509;SDS011;746;48.688;9.428;2024-01-30T10:16:10;12.30;;;11.00;;
1509;SDS011;746;48.688;9.428;2024-01-30T10:18:31;15.27;;;12.10;;
1509;SDS011;746;48.688;9.428;2024-01-30T10:20:53;14.20;;;11.37;;
1509;SDS011;746;48.688;9.428;2024-01-30T10:23:16;12.47;;;10.43;;
1509;SDS011;746;48.688;9.428;2024-01-30T10:25:39;11.87;;;10.67;;
1509;SDS011;746;48.688;9.428;2024-01-30T10:28:01;11.60;;;10.33;;
1509;SDS011;746;48.688;9.428;2024-01-30T10:30:23;11.27;;;9.90;;
1509;SDS011;746;48.688;9.428;2024-01-30T10:32:45;11.10;;;9.90;;
1509;SDS011;746;48.688;9.428;2024-01-30T10:35:07;11.47;;;10.27;;
1509;SDS011;746;48.688;9.428;2024-01-30T10:37:29;11.37;;;10.27;;
1509;SDS011;746;48.688;9.428;2024-01-30T10:39:54;11.73;;;10.53;;
1509;SDS011;746;48.688;9.428;2024-01-30T10:42:17;12.60;;;10.27;;
1509;SDS011;746;48.688;9.428;2024-01-30T10:44:43;14.83;;;12.37;;
1509;SDS011;746;48.688;9.428;2024-01-30T10:47:06;13.23;;;11.93;;
1509;SDS011;746;48.688;9.428;2024-01-30T10:49:33;15.47;;;12.20;;
1509;SDS011;746;48.688;9.428;2024-01-30T10:51:55;11.93;;;10.83;;
1509;SDS011;746;48.688;9.428;2024-01-30T10:54:16;13.57;;;12.13;;
1509;SDS011;746;48.688;9.428;2024-01-30T10:56:40;11.93;;;10.80;;
1509;SDS011;746;48.688;9.428;2024-01-30T10:59:01;14.70;;;11.07;;
1509;SDS011;746;48.688;9.428;2024-01-30T11:01:23;15.00;;;11.80;;
1509;SDS011;746;48.688;9.428;2024-01-30T11:03:45;12.90;;;11.70;;
1509;SDS011;746;48.688;9.428;2024-01-30T11:06:10;12.70;;;11.47;;
1509;SDS011;746;48.688;9.428;2024-01-30T11:08:32;14.73;;;13.27;;
1509;SDS011;746;48.688;9.428;2024-01-30T11:10:55;12.17;;;11.03;;
1509;SDS011;746;48.688;9.428;2024-01-30T11:13:18;17.37;;;12.90;;
1509;SDS011;746;48.688;9.428;2024-01-30T11:15:40;13.40;;;12.00;;
1509;SDS011;746;48.688;9.428;2024-01-30T11:18:01;12.07;;;10.87;;
1509;SDS011;746;48.688;9.428;2024-01-30T11:20:27;12.07;;;10.83;;
1509;SDS011;746;48.688;9.428;2024-01-30T11:22:51;14.63;;;11.43;;
1509;SDS011;746;48.688;9.428;2024-01-30T11:25:14;19.23;;;12.17;;
1509;SDS011;746;48.688;9.428;2024-01-30T11:27:36;12.60;;;11.27;;
1509;SDS011;746;48.688;9.428;2024-01-30T11:30:02;14.40;;;12.57;;
1509;SDS011;746;48.688;9.428;2024-01-30T11:32:24;15.07;;;11.37;;
1509;SDS011;746;48.688;9.428;2024-01-30T11:34:45;13.00;;;11.63;;
1509;SDS011;746;48.688;9.428;2024-01-30T11:37:09;16.30;;;11.20;;
1509;SDS011;746;48.688;9.428;2024-01-30T11:39:31;12.00;;;10.73;;
1509;SDS011;746;48.688;9.428;2024-01-30T11:41:52;12.47;;;11.27;;
1509;SDS011;746;48.688;9.428;2024-01-30T11:44:15;12.80;;;11.47;;
1509;SDS011;746;48.688;9.428;2024-01-30T11:46:38;12.87;;;11.47;;
1509;SDS011;746;48.688;9.428;2024-01-30T11:48:59;14.03;;;10.93;;
1509;SDS011;746;48.688;9.428;2024-01-30T11:51:20;10.63;;;9.57;;
1509;SDS011;746;48.688;9.428;2024-01-30T11:53:42;13.67;;;11.13;;
1509;SDS011;746;48.688;9.428;2024-01-30T11:56:05;11.73;;;10.17;;
1509;SDS011;746;48.688;9.428;2024-01-30T11:58:27;12.63;;;11.20;;
1509;SDS011;746;48.688;9.428;2024-01-30T12:00:52;13.53;;;11.10;;
1509;SDS011;746;48.688;9.428;2024-01-30T12:03:17;11.67;;;10.47;;
1509;SDS011;746;48.688;9.428;2024-01-30T12:05:39;12.63;;;11.33;;
1509;SDS011;746;48.688;9.428;2024-01-30T12:08:03;15.87;;;13.10;;
1509;SDS011;746;48.688;9.428;2024-01-30T12:10:25;16.60;;;13.87;;
1509;SDS011;746;48.688;9.428;2024-01-30T12:12:47;17.17;;;14.13;;
1509;SDS011;746;48.688;9.428;2024-01-30T12:15:09;15.87;;;13.80;;
1509;SDS011;746;48.688;9.428;2024-01-30T12:17:32;15.50;;;13.60;;
1509;SDS011;746;48.688;9.428;2024-01-30T12:20:03;15.87;;;12.67;;
1509;SDS011;746;48.688;9.428;2024-01-30T12:22:26;14.10;;;12.63;;
1509;SDS011;746;48.688;9.428;2024-01-30T12:24:48;14.67;;;12.97;;
1509;SDS011;746;48.688;9.428;2024-01-30T12:27:10;13.43;;;12.03;;
1509;SDS011;746;48.688;9.428;2024-01-30T12:29:32;13.27;;;11.73;;
1509;SDS011;746;48.688;9.428;2024-01-30T12:31:58;11.90;;;10.70;;
1509;SDS011;746;48.688;9.428;2024-01-30T12:34:19;10.97;;;9.93;;
1509;SDS011;746;48.688;9.428;2024-01-30T12:36:42;11.60;;;9.47;;
1509;SDS011;746;48.688;9.428;2024-01-30T12:39:04;10.47;;;9.53;;
1509;SDS011;746;48.688;9.428;2024-01-30T12:41:26;11.13;;;10.03;;
1509;SDS011;746;48.688;9.428;2024-01-30T12:43:50;9.70;;;8.80;;
1509;SDS011;746;48.688;9.428;2024-01-30T12:46:12;9.67;;;8.77;;
1509;SDS011;746;48.688;9.428;2024-01-30T12:48:33;10.37;;;9.37;;
1509;SDS011;746;48.688;9.428;2024-01-30T12:50:55;11.67;;;9.57;;
1509;SDS011;746;48.688;9.428;2024-01-30T12:53:18;10.03;;;8.73;;
1509;SDS011;746;48.688;9.428;2024-01-30T12:55:40;11.80;;;9.10;;
1509;SDS011;746;48.688;9.428;2024-01-30T12:58:01;9.70;;;8.73;;
1509;SDS011;746;48.688;9.428;2024-01-30T13:00:23;10.00;;;8.90;;
1509;SDS011;746;48.688;9.428;2024-01-30T13:02:44;10.17;;;9.07;;
1509;SDS011;746;48.688;9.428;2024-01-30T13:05:06;9.90;;;8.90;;
1509;SDS011;746;48.688;9.428;2024-01-30T13:07:29;9.87;;;8.87;;
1509;SDS011;746;48.688;9.428;2024-01-30T13:09:52;11.07;;;10.07;;
1509;SDS011;746;48.688;9.428;2024-01-30T13:12:13;9.93;;;8.90;;
1509;SDS011;746;48.688;9.428;2024-01-30T13:14:34;9.93;;;8.30;;
1509;SDS011;746;48.688;9.428;2024-01-30T13:16:56;9.60;;;8.60;;
1509;SDS011;746;48.688;9.428;2024-01-30T13:19:17;11.70;;;9.17;;
1509;SDS011;746;48.688;9.428;2024-01-30T13:21:38;9.87;;;8.53;;
1509;SDS011;746;48.688;9.428;2024-01-30T13:24:00;9.50;;;8.50;;
1509;SDS011;746;48.688;9.428;2024-01-30T13:26:22;10.47;;;9.37;;
1509;SDS011;746;48.688;9.428;2024-01-30T13:28:43;9.17;;;8.27;;
1509;SDS011;746;48.688;9.428;2024-01-30T13:31:06;10.27;;;9.23;;
1509;SDS011;746;48.688;9.428;2024-01-30T13:33:28;10.57;;;8.40;;
1509;SDS011;746;48.688;9.428;2024-01-30T13:35:50;11.37;;;9.20;;
1509;SDS011;746;48.688;9.428;2024-01-30T13:38:11;8.87;;;8.00;;
1509;SDS011;746;48.688;9.428;2024-01-30T13:40:34;11.87;;;8.53;;
1509;SDS011;746;48.688;9.428;2024-01-30T13:42:57;10.07;;;8.70;;
1509;SDS011;746;48.688;9.428;2024-01-30T13:45:18;9.33;;;8.23;;
1509;SDS011;746;48.688;9.428;2024-01-30T13:47:43;9.10;;;8.20;;
1509;SDS011;746;48.688;9.428;2024-01-30T13:50:04;8.47;;;7.67;;
1509;SDS011;746;48.688;9.428;2024-01-30T13:52:26;7.90;;;7.17;;
1509;SDS011;746;48.688;9.428;2024-01-30T13:54:57;8.53;;;7.73;;
1509;SDS011;746;48.688;9.428;2024-01-30T13:57:18;13.20;;;7.47;;
1509;SDS011;746;48.688;9.428;2024-01-30T13:59:41;8.53;;;7.63;;
1509;SDS011;746;48.688;9.428;2024-01-30T14:02:03;8.17;;;7.37;;
1509;SDS011;746;48.688;9.428;2024-01-30T14:04:26;8.67;;;7.83;;
1509;SDS011;746;48.688;9.428;2024-01-30T14:06:47;8.80;;;7.90;;
1509;SDS011;746;48.688;9.428;2024-01-30T14:09:19;8.47;;;7.23;;
1509;SDS011;746;48.688;9.428;2024-01-30T14:11:41;8.60;;;7.80;;
1509;SDS011;746;48.688;9.428;2024-01-30T14:14:02;8.83;;;8.03;;
1509;SDS011;746;48.688;9.428;2024-01-30T14:16:25;8.97;;;7.73;;
1509;SDS011;746;48.688;9.428;2024-01-30T14:18:46;7.97;;;7.17;;
1509;SDS011;746;48.688;9.428;2024-01-30T14:21:08;9.17;;;8.03;;
1509;SDS011;746;48.688;9.428;2024-01-30T14:23:29;8.17;;;7.43;;
1509;SDS011;746;48.688;9.428;2024-01-30T14:25:51;8.57;;;7.80;;
1509;SDS011;746;48.688;9.428;2024-01-30T14:28:12;9.00;;;7.77;;
1509;SDS011;746;48.688;9.428;2024-01-30T14:30:34;7.77;;;7.07;;
1509;SDS011;746;48.688;9.428;2024-01-30T14:32:57;10.00;;;8.17;;